Aérodrome :
LOGIN :

S'inscrire | Disclaimer

   EN    FR    IT 

 










Légende :    VFR   VFR Marginal   IFR   IFR Intensif   IFR Très Intensif
Visi : 
Plafond : 
>= 8 km
>= 3000ft
5 à 8 km
1000 à 3000 ft
1500m à 5 km
500 à 1000 ft
800 à 1500m
200 à 500 ft
< 800m
< 200 ft
Symboles :   Orages  Brouillard  Fortes neiges  Fortes précipitations  Vent > 20 kt
SIGMETs :   Divers  Orages  Givrage  Turbulence  Onde Orograph.  Cendres Volcan.







- Altitude de l'aérodrome : 1585 ft
- Code IATA : SIR


LSGS - Sion

DERNIER METAR :
  • 240950Z 25007KT 9999 FEW060 SCT090 19/10 Q1020

METARs EXPIRÉS :
  • 240920Z 25007KT 9999 FEW060 SCT090 18/11 Q1020
  • 240850Z 23004KT 200V270 9999 FEW060 SCT110 18/10 Q1021
  • 240820Z VRB02KT 9999 FEW060 SCT110 18/10 Q1021
  • 240750Z 06004KT 020V090 9999 SCT100 BKN130 17/10 Q1021
  • 240720Z VRB02KT 9999 SCT100 BKN130 16/10 Q1021

TAF TAF LSGS
Valide du 24 à 09h jusqu'au 24 à 18h UTC


240825Z 2409/2418 VRB03KT 9999 FEW090 BKN130
BECMG 2409/2412 25007KT FEW060 SCT100
Pas de NOTAMs connus pour ce terrain.



MET'MAP, la Météo Aéronautique d'un coup d'oeil ! - Copyright ORBIFLY Décembre 2007 - Disclaimer

ORBIFLY MET'MAP TEAM :

Programmation & Développement : Alexandra Zaïnal
Conception & Développement : Baudouin d'Aumeries
Co-Programmation & Développement : Marc-Olivier Méhu
Soutien technique & logistique : Manuel Goepfert

Contact : metmap@orbifly.com




SOURCES & CREDITS :

   NOAA